createdAt,value
2019-01-25T00:01:12.990Z,99744.59
2019-01-25T00:03:46.675Z,99736.91
2019-01-25T00:06:22.499Z,99742.77
2019-01-25T00:08:55.624Z,99741.75
2019-01-25T00:11:29.280Z,99737.52
2019-01-25T00:14:02.011Z,99737.27
2019-01-25T00:16:35.025Z,99736.94
2019-01-25T00:19:08.431Z,99746.76
2019-01-25T00:21:41.817Z,99740.92
2019-01-25T00:24:15.095Z,99736.88
2019-01-25T00:26:47.713Z,99736.88
2019-01-25T00:29:20.837Z,99734.46
2019-01-25T00:31:54.148Z,99727.46
2019-01-25T00:34:27.151Z,99731.45
2019-01-25T00:37:00.442Z,99735.83
2019-01-25T00:39:33.831Z,99733.41
2019-01-25T00:42:07.008Z,99735.55
2019-01-25T00:44:40.107Z,99738.97
2019-01-25T00:47:13.118Z,99742.92
2019-01-25T00:49:46.008Z,99740.61
2019-01-25T00:52:18.608Z,99734.28
2019-01-25T00:54:52.478Z,99739.56
2019-01-25T00:57:26.608Z,99741.87
2019-01-25T00:59:59.591Z,99748.48
2019-01-25T01:02:32.650Z,99739.50
2019-01-25T01:05:06.505Z,99738.41
2019-01-25T01:07:39.579Z,99741.31
2019-01-25T01:10:14.262Z,99738.09
2019-01-25T01:12:48.551Z,99736.88
2019-01-25T01:15:22.319Z,99733.20
2019-01-25T01:17:55.821Z,99731.48
2019-01-25T01:20:28.820Z,99733.34
2019-01-25T01:23:01.069Z,99733.14
2019-01-25T01:25:34.574Z,99739.53
2019-01-25T01:28:07.659Z,99736.84
2019-01-25T01:30:41.511Z,99741.07
2019-01-25T01:33:14.893Z,99741.52
2019-01-25T01:35:48.652Z,99735.47
2019-01-25T01:38:21.644Z,99734.55
2019-01-25T01:40:57.521Z,99732.70
2019-01-25T01:43:31.013Z,99737.39
2019-01-25T01:46:04.408Z,99739.54
2019-01-25T01:48:37.993Z,99739.58
2019-01-25T01:51:10.691Z,99746.19
2019-01-25T01:53:43.408Z,99752.10
2019-01-25T01:56:15.970Z,99750.33
2019-01-25T01:58:49.150Z,99748.68
2019-01-25T02:01:22.990Z,99748.83
2019-01-25T02:03:56.025Z,99753.58
2019-01-25T02:06:29.930Z,99752.01
2019-01-25T02:09:04.567Z,99748.30
2019-01-25T02:11:40.295Z,99749.35
2019-01-25T02:14:13.502Z,99745.05
2019-01-25T02:16:46.824Z,99741.44
2019-01-25T02:19:19.986Z,99742.33
2019-01-25T02:21:53.705Z,99744.25
2019-01-25T02:24:26.708Z,99740.79
2019-01-25T02:27:00.052Z,99730.20
2019-01-25T02:29:33.098Z,99728.10
2019-01-25T02:32:06.288Z,99727.05
2019-01-25T02:34:39.381Z,99728.63
2019-01-25T02:37:11.968Z,99728.34
2019-01-25T02:39:45.268Z,99732.09
2019-01-25T02:42:19.516Z,99732.05
2019-01-25T02:44:52.640Z,99740.30
2019-01-25T02:47:25.845Z,99739.74
2019-01-25T02:49:59.655Z,99740.33
2019-01-25T02:52:32.931Z,99740.33
2019-01-25T02:55:08.140Z,99735.27
2019-01-25T02:57:41.171Z,99736.80
2019-01-25T03:00:19.368Z,99736.88
2019-01-25T03:02:52.762Z,99738.17
2019-01-25T03:05:25.541Z,99734.19
2019-01-25T03:07:59.367Z,99734.43
2019-01-25T03:10:31.975Z,99722.99
2019-01-25T03:13:04.154Z,99722.55
2019-01-25T03:15:37.546Z,99723.55
2019-01-25T03:18:10.504Z,99719.53
2019-01-25T03:20:43.509Z,99716.34
2019-01-25T03:23:16.887Z,99720.02
2019-01-25T03:25:50.181Z,99722.34
2019-01-25T03:28:23.151Z,99722.19
2019-01-25T03:30:57.458Z,99720.62
2019-01-25T03:33:30.804Z,99722.14
2019-01-25T03:36:04.139Z,99718.41
2019-01-25T03:38:37.322Z,99721.06
2019-01-25T03:41:10.406Z,99728.83
2019-01-25T03:43:43.714Z,99725.61
2019-01-25T03:46:16.296Z,99713.91
2019-01-25T03:48:49.314Z,99718.41
2019-01-25T03:51:22.611Z,99718.41
2019-01-25T03:53:55.216Z,99724.48
2019-01-25T03:56:29.104Z,99718.41
2019-01-25T03:59:02.949Z,99724.81
2019-01-25T04:01:36.505Z,99725.05
2019-01-25T04:04:09.990Z,99726.09
2019-01-25T04:06:43.400Z,99730.12
2019-01-25T04:09:17.202Z,99729.75
2019-01-25T04:11:50.211Z,99723.62
2019-01-25T04:14:23.971Z,99725.66
2019-01-25T04:16:57.467Z,99724.88
2019-01-25T04:19:30.887Z,99723.03
2019-01-25T04:22:03.476Z,99730.20
2019-01-25T04:24:36.803Z,99731.70
2019-01-25T04:27:09.332Z,99726.61
2019-01-25T04:29:42.502Z,99718.93
2019-01-25T04:32:15.860Z,99719.28
2019-01-25T04:34:48.942Z,99717.92
2019-01-25T04:37:22.224Z,99717.64
2019-01-25T04:39:55.683Z,99716.34
2019-01-25T04:42:29.565Z,99718.97
2019-01-25T04:45:02.451Z,99721.63
2019-01-25T04:47:34.832Z,99721.42
2019-01-25T04:50:11.979Z,99727.58
2019-01-25T04:52:45.308Z,99714.17
2019-01-25T04:55:26.355Z,99717.92
2019-01-25T04:58:28.411Z,99709.34
2019-01-25T05:01:08.658Z,99720.02
2019-01-25T05:03:41.687Z,99725.00
2019-01-25T05:06:17.245Z,99727.10
2019-01-25T05:08:50.893Z,99739.87
2019-01-25T05:11:23.783Z,99748.23
2019-01-25T05:13:58.679Z,99742.84
2019-01-25T05:16:31.817Z,99747.42
2019-01-25T05:19:05.219Z,99758.09
2019-01-25T05:21:38.678Z,99766.34
2019-01-25T05:24:12.424Z,99771.06
2019-01-25T05:26:45.472Z,99770.60
2019-01-25T05:29:22.994Z,99775.82
2019-01-25T05:31:56.393Z,99774.28
2019-01-25T05:34:29.832Z,99778.27
2019-01-25T05:37:04.945Z,99762.81
2019-01-25T05:39:37.821Z,99766.44
2019-01-25T05:42:11.411Z,99757.25
2019-01-25T05:44:43.558Z,99757.42
2019-01-25T05:47:17.062Z,99760.16
2019-01-25T05:49:50.371Z,99765.16
2019-01-25T05:52:23.460Z,99769.14
2019-01-25T05:54:56.023Z,99771.03
2019-01-25T05:57:28.995Z,99765.91
2019-01-25T06:00:06.863Z,99762.98
2019-01-25T06:02:40.509Z,99765.16
2019-01-25T06:05:14.036Z,99759.88
2019-01-25T06:07:48.395Z,99755.12
2019-01-25T06:10:21.422Z,99747.91
2019-01-25T06:12:55.983Z,99758.27
2019-01-25T06:15:28.998Z,99756.61
2019-01-25T06:18:02.497Z,99761.17
2019-01-25T06:20:35.437Z,99764.83
2019-01-25T06:23:09.234Z,99769.17
2019-01-25T06:25:42.680Z,99769.91
2019-01-25T06:28:16.134Z,99774.70
2019-01-25T06:30:50.271Z,99778.16
2019-01-25T06:33:23.353Z,99776.27
2019-01-25T06:35:56.750Z,99770.19
2019-01-25T06:38:30.522Z,99761.97
2019-01-25T06:41:04.873Z,99764.80
2019-01-25T06:43:38.786Z,99761.45
2019-01-25T06:46:11.831Z,99764.38
2019-01-25T06:48:44.367Z,99767.25
2019-01-25T06:51:17.882Z,99768.33
2019-01-25T06:53:51.662Z,99770.91
2019-01-25T06:56:25.371Z,99769.10
2019-01-25T06:59:12.596Z,99775.54
2019-01-25T07:02:05.122Z,99768.38
2019-01-25T07:04:37.771Z,99773.05
2019-01-25T07:07:34.258Z,99764.91
2019-01-25T07:10:12.108Z,99765.16
2019-01-25T07:12:45.881Z,99773.65
2019-01-25T07:15:22.173Z,99786.41
2019-01-25T07:17:55.620Z,99778.64
2019-01-25T07:20:29.134Z,99777.88
2019-01-25T07:23:02.393Z,99777.84
2019-01-25T07:25:35.714Z,99778.16
2019-01-25T07:28:08.393Z,99765.92
2019-01-25T07:30:41.579Z,99765.91
2019-01-25T07:33:14.680Z,99762.98
2019-01-25T07:35:47.377Z,99760.00
2019-01-25T07:38:20.951Z,99763.54
2019-01-25T07:40:54.724Z,99764.11
2019-01-25T07:43:28.001Z,99773.33
2019-01-25T07:46:00.907Z,99779.48
2019-01-25T07:48:34.366Z,99780.05
2019-01-25T07:51:07.704Z,99772.16
2019-01-25T07:53:41.173Z,99784.00
2019-01-25T07:56:14.112Z,99778.40
2019-01-25T07:58:49.583Z,99782.42
2019-01-25T08:01:22.248Z,99788.05
2019-01-25T08:03:55.553Z,99792.28
2019-01-25T08:06:29.944Z,99802.14
2019-01-25T08:09:04.898Z,99803.89
2019-01-25T08:11:38.605Z,99798.69
2019-01-25T08:14:12.863Z,99790.67
2019-01-25T08:16:46.132Z,99787.95
2019-01-25T08:19:19.519Z,99793.34
2019-01-25T08:21:53.006Z,99789.00
2019-01-25T08:24:25.769Z,99796.77
2019-01-25T08:26:59.103Z,99782.35
2019-01-25T08:29:31.974Z,99797.91
2019-01-25T08:32:05.367Z,99782.19
2019-01-25T08:34:38.861Z,99785.09
2019-01-25T08:37:11.846Z,99788.19
2019-01-25T08:39:45.029Z,99789.31
2019-01-25T08:42:17.728Z,99789.80
2019-01-25T08:44:50.513Z,99795.22
2019-01-25T08:47:24.093Z,99793.05
2019-01-25T08:49:58.017Z,99800.30
2019-01-25T08:52:31.414Z,99799.91
2019-01-25T08:55:05.242Z,99787.67
2019-01-25T08:57:38.328Z,99791.17
2019-01-25T09:00:16.729Z,99791.38
2019-01-25T09:02:49.827Z,99793.95
2019-01-25T09:05:23.347Z,99801.07
2019-01-25T09:07:56.334Z,99802.92
2019-01-25T09:10:29.821Z,99790.56
2019-01-25T09:13:03.130Z,99790.20
2019-01-25T09:15:36.767Z,99795.22
2019-01-25T09:18:09.918Z,99789.23
2019-01-25T09:20:42.558Z,99794.05
2019-01-25T09:23:15.951Z,99783.55
2019-01-25T09:25:50.239Z,99786.34
2019-01-25T09:28:23.254Z,99786.77
2019-01-25T09:30:57.182Z,99790.06
2019-01-25T09:33:29.865Z,99783.52
2019-01-25T09:36:02.845Z,99788.11
2019-01-25T09:38:36.246Z,99781.84
2019-01-25T09:41:09.345Z,99774.62
2019-01-25T09:43:42.421Z,99765.48
2019-01-25T09:46:15.401Z,99770.44
2019-01-25T09:48:49.027Z,99770.56
2019-01-25T09:51:22.093Z,99773.63
2019-01-25T09:53:54.982Z,99781.90
2019-01-25T09:56:27.985Z,99774.49
2019-01-25T09:59:00.961Z,99773.00
2019-01-25T10:01:34.070Z,99782.77
2019-01-25T10:04:07.678Z,99779.64
2019-01-25T10:06:40.632Z,99778.27
2019-01-25T10:09:14.375Z,99778.66
2019-01-25T10:11:47.784Z,99766.29
2019-01-25T10:14:20.637Z,99764.80
2019-01-25T10:16:53.814Z,99765.06
2019-01-25T10:19:26.500Z,99759.11
2019-01-25T10:22:00.009Z,99753.49
2019-01-25T10:24:33.107Z,99754.00
2019-01-25T10:27:06.124Z,99752.68
2019-01-25T10:29:39.497Z,99758.22
2019-01-25T10:32:13.273Z,99766.69
2019-01-25T10:34:46.787Z,99755.11
2019-01-25T10:37:20.352Z,99755.05
2019-01-25T10:39:53.262Z,99745.62
2019-01-25T10:42:26.417Z,99740.30
2019-01-25T10:45:04.278Z,99743.08
2019-01-25T10:47:35.234Z,99736.63
2019-01-25T10:50:08.438Z,99738.41
2019-01-25T10:52:41.898Z,99738.70
2019-01-25T10:55:15.889Z,99736.47
2019-01-25T10:57:48.490Z,99736.27
2019-01-25T11:00:21.472Z,99733.22
2019-01-25T11:02:58.413Z,99734.77
2019-01-25T11:05:29.029Z,99731.51
2019-01-25T11:08:01.879Z,99734.11
2019-01-25T11:10:34.858Z,99734.80
2019-01-25T11:13:08.357Z,99729.02
2019-01-25T11:15:41.546Z,99722.12
2019-01-25T11:18:14.647Z,99719.16
2019-01-25T11:20:48.152Z,99708.59
2019-01-25T11:23:20.812Z,99706.48
2019-01-25T11:25:55.386Z,99697.52
2019-01-25T11:28:28.852Z,99703.61
2019-01-25T11:31:01.934Z,99703.73
2019-01-25T11:33:34.915Z,99702.19
2019-01-25T11:36:08.453Z,99698.67
2019-01-25T11:38:42.322Z,99695.56
2019-01-25T11:41:16.127Z,99695.19
2019-01-25T11:43:49.953Z,99697.41
2019-01-25T11:46:23.365Z,99705.14
2019-01-25T11:48:56.410Z,99704.05
2019-01-25T11:51:29.689Z,99707.39
2019-01-25T11:54:02.993Z,99697.80
2019-01-25T11:56:35.613Z,99694.05
2019-01-25T11:59:09.173Z,99698.36
2019-01-25T12:01:42.370Z,99699.83
2019-01-25T12:04:15.695Z,99697.95
2019-01-25T12:06:49.185Z,99695.56
2019-01-25T12:09:22.242Z,99687.48
2019-01-25T12:11:56.016Z,99691.77
2019-01-25T12:14:28.719Z,99685.28
2019-01-25T12:17:01.641Z,99681.97
2019-01-25T12:19:34.289Z,99682.98
2019-01-25T12:22:07.316Z,99681.83
2019-01-25T12:24:40.926Z,99680.33
2019-01-25T12:27:13.610Z,99671.41
2019-01-25T12:29:46.497Z,99666.70
2019-01-25T12:32:19.985Z,99669.10
2019-01-25T12:34:53.472Z,99661.30
2019-01-25T12:37:26.602Z,99661.10
2019-01-25T12:40:00.506Z,99664.25
2019-01-25T12:42:34.002Z,99668.43
2019-01-25T12:45:09.689Z,99654.00
2019-01-25T12:47:44.160Z,99651.95
2019-01-25T12:50:20.374Z,99659.63
2019-01-25T12:52:53.510Z,99650.23
2019-01-25T12:55:27.083Z,99640.22
2019-01-25T12:58:01.031Z,99641.19
2019-01-25T13:00:40.039Z,99637.58
2019-01-25T13:03:13.962Z,99628.69
2019-01-25T13:05:47.191Z,99622.55
2019-01-25T13:08:21.050Z,99619.23
2019-01-25T13:10:54.555Z,99615.20
2019-01-25T13:13:31.740Z,99616.16
2019-01-25T13:16:02.984Z,99613.39
2019-01-25T13:18:36.840Z,99603.39
2019-01-25T13:21:09.475Z,99604.09
2019-01-25T13:23:43.134Z,99603.81
2019-01-25T13:26:16.484Z,99608.26
2019-01-25T13:28:49.877Z,99620.54
2019-01-25T13:31:22.952Z,99621.47
2019-01-25T13:33:55.942Z,99612.87
2019-01-25T13:36:28.756Z,99614.44
2019-01-25T13:39:02.148Z,99612.13
2019-01-25T13:41:36.983Z,99595.27
2019-01-25T13:44:10.648Z,99598.30
2019-01-25T13:46:43.803Z,99603.72
2019-01-25T13:49:17.833Z,99596.96
2019-01-25T13:51:50.459Z,99594.45
2019-01-25T13:54:23.561Z,99590.12
2019-01-25T13:56:57.419Z,99589.95
2019-01-25T13:59:30.950Z,99596.84
2019-01-25T14:02:03.873Z,99592.96
2019-01-25T14:04:36.769Z,99581.31
2019-01-25T14:07:09.940Z,99588.69
2019-01-25T14:09:43.092Z,99580.75
2019-01-25T14:12:17.013Z,99574.55
2019-01-25T14:14:50.196Z,99578.97
2019-01-25T14:17:23.813Z,99564.20
2019-01-25T14:19:57.071Z,99559.23
2019-01-25T14:22:30.449Z,99556.99
2019-01-25T14:25:04.531Z,99553.49
2019-01-25T14:27:37.708Z,99544.05
2019-01-25T14:30:19.768Z,99537.39
2019-01-25T14:32:53.623Z,99530.13
2019-01-25T14:35:27.222Z,99535.59
2019-01-25T14:38:00.803Z,99536.63
2019-01-25T14:40:34.228Z,99529.36
2019-01-25T14:43:07.475Z,99531.09
2019-01-25T14:45:40.589Z,99527.56
2019-01-25T14:48:14.864Z,99528.89
2019-01-25T14:50:48.441Z,99520.42
2019-01-25T14:53:22.245Z,99524.95
2019-01-25T14:55:55.485Z,99527.98
2019-01-25T14:58:28.939Z,99526.98
2019-01-25T15:01:03.880Z,99525.05
2019-01-25T15:03:38.483Z,99522.58
2019-01-25T15:06:11.544Z,99521.04
2019-01-25T15:08:44.776Z,99525.80
2019-01-25T15:11:17.082Z,99526.00
2019-01-25T15:13:50.102Z,99525.14
2019-01-25T15:16:23.088Z,99522.19
2019-01-25T15:18:56.463Z,99508.97
2019-01-25T15:21:29.072Z,99509.38
2019-01-25T15:24:03.102Z,99506.87
2019-01-25T15:26:36.473Z,99506.87
2019-01-25T15:29:10.252Z,99510.22
2019-01-25T15:31:43.073Z,99510.72
2019-01-25T15:34:16.149Z,99511.75
2019-01-25T15:36:49.765Z,99517.28
2019-01-25T15:39:23.703Z,99507.70
2019-01-25T15:41:57.614Z,99513.11
2019-01-25T15:44:31.454Z,99516.39
2019-01-25T15:47:04.979Z,99523.72
2019-01-25T15:49:38.277Z,99519.53
2019-01-25T15:52:11.661Z,99506.70
2019-01-25T15:54:45.278Z,99507.06
2019-01-25T15:57:18.970Z,99520.82
2019-01-25T15:59:51.760Z,99514.45
2019-01-25T16:02:24.870Z,99508.38
2019-01-25T16:04:58.893Z,99504.47
2019-01-25T16:07:32.006Z,99501.20
2019-01-25T16:10:06.903Z,99510.28
2019-01-25T22:00:55.226Z,99026.75
2019-01-25T22:03:27.896Z,99021.84
2019-01-25T22:06:00.953Z,99015.39
2019-01-25T22:08:35.123Z,99015.44
2019-01-25T22:11:09.088Z,99017.72
2019-01-25T22:13:41.813Z,99019.30
2019-01-25T22:16:14.927Z,99008.52
2019-01-25T22:18:48.357Z,99016.64
2019-01-25T22:21:21.698Z,99009.44
2019-01-25T22:23:55.588Z,99000.86
2019-01-25T22:26:28.308Z,98995.50
2019-01-25T22:29:02.282Z,98996.97
2019-01-25T22:31:35.845Z,99001.36
2019-01-25T22:34:08.495Z,99003.28
2019-01-25T22:36:42.592Z,99005.29
2019-01-25T22:39:16.079Z,98979.82
2019-01-25T22:41:49.359Z,98982.97
2019-01-25T22:44:23.266Z,98978.39
2019-01-25T22:46:57.115Z,98978.42
2019-01-25T22:49:29.690Z,98973.28
2019-01-25T22:52:02.673Z,98980.31
2019-01-25T22:54:36.186Z,98983.67
2019-01-25T22:57:09.258Z,98981.23
2019-01-25T22:59:42.589Z,98977.42
2019-01-25T23:02:15.946Z,98972.97
2019-01-25T23:05:33.400Z,98969.50
2019-01-25T23:08:06.615Z,98968.06
2019-01-25T23:10:41.673Z,98979.70
2019-01-25T23:13:15.051Z,98970.08
2019-01-25T23:15:48.500Z,98976.14
2019-01-25T23:18:22.050Z,98965.87
2019-01-25T23:20:55.818Z,98958.16
2019-01-25T23:23:29.018Z,98953.83
2019-01-25T23:26:02.199Z,98959.41
2019-01-25T23:28:34.847Z,98955.40
2019-01-25T23:31:08.062Z,98951.26
2019-01-25T23:33:41.143Z,98962.99
2019-01-25T23:36:14.057Z,98951.38
2019-01-25T23:38:48.319Z,98958.08
2019-01-25T23:41:23.527Z,98946.44
2019-01-25T23:43:57.770Z,98960.33
2019-01-25T23:46:33.754Z,98952.72
2019-01-25T23:49:06.421Z,98948.88
2019-01-25T23:51:40.050Z,98947.80
2019-01-25T23:54:14.244Z,98953.28
2019-01-25T23:56:47.587Z,98952.61
2019-01-25T23:59:20.662Z,98948.04
